Time;durP1;ratioP1;P1;durP2;ratioP2;P2;SDS_P1;SDS_P2;PMS_P1;PMS_P2;Temp;Humidity;BMP_temperature;BMP_pressure;BME280_temperature;BME280_humidity;BME280_pressure;Samples;Min_cycle;Max_cycle;Signal;HPM_P1;HPM_P2
2023/02/18 00:01:25;;;;;;;0.10;0.10;;;15.70;70.40;;;;;;5050914;28;20480;-68
2023/02/18 00:03:50;;;;;;;0.45;0.30;;;15.70;70.40;;;;;;5052160;28;20021;-68
2023/02/18 00:06:24;;;;;;;0.45;0.30;;;15.70;70.40;;;;;;5051209;28;20049;-68
2023/02/18 00:08:50;;;;;;;0.38;0.20;;;15.70;70.40;;;;;;5050813;28;20064;-68
2023/02/18 00:11:16;;;;;;;0.35;0.30;;;15.70;70.40;;;;;;5034325;28;20157;-68
2023/02/18 00:13:42;;;;;;;0.30;0.30;;;15.70;70.40;;;;;;5051959;28;20067;-68
2023/02/18 00:16:10;;;;;;;0.28;0.20;;;15.70;70.40;;;;;;5050814;28;20028;-67
2023/02/18 00:18:35;;;;;;;0.30;0.20;;;15.70;70.40;;;;;;5036184;28;20096;-68
2023/02/18 00:21:03;;;;;;;0.20;0.20;;;15.70;70.40;;;;;;5054823;28;20439;-68
2023/02/18 00:23:29;;;;;;;0.20;0.20;;;15.60;70.30;;;;;;5038427;28;20107;-68
2023/02/18 00:25:59;;;;;;;0.55;0.22;;;15.60;70.30;;;;;;5056060;28;20104;-68
2023/02/18 00:28:25;;;;;;;0.50;0.30;;;15.70;70.40;;;;;;5054299;28;20057;-68
2023/02/18 00:30:51;;;;;;;0.10;0.10;;;15.60;70.30;;;;;;5054583;28;20576;-68
2023/02/18 00:33:16;;;;;;;0.38;0.30;;;15.60;70.30;;;;;;5055757;28;20127;-68
2023/02/18 00:35:42;;;;;;;0.60;0.20;;;15.60;70.40;;;;;;5055889;28;20052;-68
2023/02/18 00:38:08;;;;;;;0.30;0.30;;;15.60;70.40;;;;;;5055833;28;20494;-68
2023/02/18 00:40:37;;;;;;;0.88;0.25;;;15.60;70.40;;;;;;5055920;28;20035;-68
2023/02/18 00:43:02;;;;;;;0.20;0.20;;;15.60;70.40;;;;;;5034200;28;20025;-68
2023/02/18 00:45:28;;;;;;;0.47;0.40;;;15.60;70.30;;;;;;5035575;28;20399;-68
2023/02/18 00:47:54;;;;;;;0.50;0.20;;;15.60;70.30;;;;;;5035571;28;20026;-68
2023/02/18 00:50:19;;;;;;;0.20;0.20;;;15.60;70.30;;;;;;5027848;28;20029;-68
2023/02/18 00:52:45;;;;;;;0.10;0.10;;;15.60;70.30;;;;;;5035543;28;20018;-68
2023/02/18 00:55:10;;;;;;;0.47;0.20;;;15.60;70.30;;;;;;5035310;28;20032;-68
2023/02/18 00:57:36;;;;;;;0.88;0.35;;;15.60;70.40;;;;;;5035282;28;20022;-68
2023/02/18 01:00:04;;;;;;;0.55;0.30;;;15.60;70.40;;;;;;5035519;28;20513;-68
2023/02/18 01:02:29;;;;;;;0.20;0.20;;;15.60;70.30;;;;;;5035171;28;20514;-68
2023/02/18 01:04:55;;;;;;;0.20;0.20;;;15.60;70.30;;;;;;5035538;28;20026;-68
2023/02/18 01:07:21;;;;;;;0.30;0.30;;;15.60;70.30;;;;;;5035240;28;20021;-68
2023/02/18 01:09:46;;;;;;;0.25;0.25;;;15.50;70.20;;;;;;5035040;28;20064;-68
2023/02/18 01:12:12;;;;;;;0.30;0.30;;;15.60;70.30;;;;;;5033809;28;20026;-68
2023/02/18 01:14:37;;;;;;;0.47;0.30;;;15.60;70.30;;;;;;5035045;28;20030;-68
2023/02/18 01:17:03;;;;;;;0.85;0.40;;;15.60;70.30;;;;;;5035043;28;20556;-68
2023/02/18 01:19:29;;;;;;;0.10;0.10;;;15.50;70.30;;;;;;5035023;28;20488;-68
2023/02/18 01:21:54;;;;;;;0.43;0.43;;;15.60;70.40;;;;;;5034705;28;20377;-68
2023/02/18 01:24:20;;;;;;;0.30;0.30;;;15.50;70.40;;;;;;5035057;28;20534;-68
2023/02/18 01:26:45;;;;;;;0.20;0.20;;;15.50;70.30;;;;;;5034613;28;20029;-68
2023/02/18 01:29:11;;;;;;;0.30;0.30;;;15.50;70.40;;;;;;5034272;28;20071;-68
2023/02/18 01:31:37;;;;;;;0.30;0.20;;;15.50;70.40;;;;;;5032891;28;20614;-68
2023/02/18 01:34:02;;;;;;;0.20;0.20;;;15.50;70.30;;;;;;5034764;28;20038;-68
2023/02/18 01:36:28;;;;;;;0.10;0.10;;;15.50;70.30;;;;;;5033672;28;20097;-68
2023/02/18 01:38:54;;;;;;;1.88;0.30;;;15.50;70.30;;;;;;5033479;28;20021;-68
2023/02/18 01:41:19;;;;;;;0.30;0.30;;;15.50;70.30;;;;;;5034228;28;20026;-68
2023/02/18 01:43:45;;;;;;;0.20;0.20;;;15.50;70.40;;;;;;5034559;28;20057;-68
2023/02/18 01:46:20;;;;;;;0.90;0.30;;;15.50;70.30;;;;;;5034466;28;20028;-68
2023/02/18 01:48:47;;;;;;;0.47;0.20;;;15.50;70.40;;;;;;5034655;28;20056;-68
2023/02/18 01:51:21;;;;;;;0.20;0.17;;;15.50;70.40;;;;;;5053174;28;20025;-67
2023/02/18 01:54:12;;;;;;;0.20;0.20;;;15.50;70.40;;;;;;5052933;28;20112;-68
2023/02/18 01:56:41;;;;;;;0.30;0.30;;;15.50;70.40;;;;;;5050220;28;20404;-68
2023/02/18 01:59:10;;;;;;;0.52;0.25;;;15.50;70.30;;;;;;5053052;28;20032;-68
2023/02/18 02:01:36;;;;;;;0.28;0.20;;;15.50;70.30;;;;;;5036804;28;20021;-68
2023/02/18 02:04:01;;;;;;;1.25;0.30;;;15.40;70.30;;;;;;5036329;28;20383;-68
2023/02/18 02:06:27;;;;;;;1.55;0.28;;;15.50;70.40;;;;;;5052973;28;20068;-68
2023/02/18 02:08:56;;;;;;;0.25;0.20;;;15.40;70.30;;;;;;5036010;28;20086;-68
2023/02/18 02:11:52;;;;;;;0.20;0.20;;;15.40;70.30;;;;;;5052813;28;20025;-68
2023/02/18 02:14:21;;;;;;;0.10;0.10;;;15.50;70.40;;;;;;5054015;28;20029;-68
2023/02/18 02:17:21;;;;;;;0.25;0.20;;;15.40;70.30;;;;;;5052495;28;20024;-68
2023/02/18 02:20:02;;;;;;;0.95;0.30;;;15.40;70.30;;;;;;5052518;28;20021;-68
2023/02/18 02:22:49;;;;;;;0.20;0.20;;;15.40;70.30;;;;;;5052443;28;20032;-68
2023/02/18 02:25:31;;;;;;;0.45;0.40;;;15.40;70.30;;;;;;5052958;28;20033;-68
2023/02/18 02:28:49;;;;;;;0.43;0.32;;;15.40;70.30;;;;;;5052194;28;20045;-68
2023/02/18 02:31:42;;;;;;;0.10;0.10;;;15.40;70.30;;;;;;5059908;28;20048;-68
2023/02/18 02:34:26;;;;;;;0.17;0.17;;;15.40;70.30;;;;;;5071410;28;20024;-68
2023/02/18 02:37:09;;;;;;;0.10;0.10;;;15.40;70.30;;;;;;5054680;28;20056;-68
2023/02/18 02:40:12;;;;;;;0.43;0.20;;;15.40;70.40;;;;;;5071508;28;20040;-68
2023/02/18 02:43:13;;;;;;;0.20;0.20;;;15.40;70.40;;;;;;5053837;28;20061;-68
2023/02/18 02:45:51;;;;;;;0.28;0.28;;;15.40;70.40;;;;;;5034689;28;20036;-68
2023/02/18 02:48:55;;;;;;;0.30;0.20;;;15.40;70.30;;;;;;5051175;28;20041;-68
2023/02/18 02:51:31;;;;;;;0.20;0.20;;;15.40;70.40;;;;;;5050874;28;20033;-68
2023/02/18 02:54:22;;;;;;;0.40;0.20;;;15.40;70.30;;;;;;5034430;28;20029;-68
2023/02/18 02:56:48;;;;;;;0.88;0.20;;;15.40;70.30;;;;;;5050914;28;20021;-68
2023/02/18 02:59:21;;;;;;;0.35;0.20;;;15.40;70.30;;;;;;5034494;28;20036;-68
2023/02/18 03:01:53;;;;;;;0.30;0.20;;;15.30;70.30;;;;;;5031373;28;20026;-68
2023/02/18 03:04:26;;;;;;;0.40;0.20;;;15.30;70.30;;;;;;5033112;28;20484;-68
2023/02/18 03:07:03;;;;;;;0.20;0.20;;;15.40;70.30;;;;;;5031693;28;20045;-68
2023/02/18 03:09:50;;;;;;;0.20;0.20;;;15.40;70.30;;;;;;5032828;28;20029;-68
2023/02/18 03:12:41;;;;;;;0.13;0.13;;;15.30;70.30;;;;;;5033020;28;20025;-68
2023/02/18 03:15:31;;;;;;;0.40;0.25;;;15.40;70.30;;;;;;5031889;28;20534;-68
2023/02/18 03:18:07;;;;;;;0.25;0.10;;;15.30;70.20;;;;;;5032728;28;20025;-68
2023/02/18 03:20:36;;;;;;;0.10;0.10;;;15.30;70.30;;;;;;5031475;28;20026;-68
2023/02/18 03:23:04;;;;;;;0.25;0.25;;;15.30;70.20;;;;;;5031442;28;20517;-68
2023/02/18 03:25:31;;;;;;;0.00;0.00;;;15.30;70.30;;;;;;5031535;28;20542;-68
2023/02/18 03:28:07;;;;;;;0.75;0.30;;;15.30;70.30;;;;;;5014882;28;20460;-68
2023/02/18 03:30:40;;;;;;;0.30;0.20;;;15.30;70.30;;;;;;5031577;28;20479;-68
2023/02/18 03:33:07;;;;;;;0.20;0.20;;;15.30;70.30;;;;;;5031677;28;20070;-68
2023/02/18 03:35:32;;;;;;;0.30;0.30;;;15.30;70.30;;;;;;5032373;28;20032;-68
2023/02/18 03:38:03;;;;;;;0.50;0.30;;;15.30;70.20;;;;;;5015088;28;20021;-68
2023/02/18 03:40:29;;;;;;;0.57;0.20;;;15.30;70.40;;;;;;5031382;28;20026;-68
2023/02/18 03:42:58;;;;;;;0.28;0.25;;;15.30;70.30;;;;;;5034109;28;20376;-68
2023/02/18 03:45:25;;;;;;;0.30;0.30;;;15.30;70.40;;;;;;5051295;28;20057;-68
2023/02/18 03:47:50;;;;;;;0.35;0.20;;;15.30;70.30;;;;;;5052125;28;20025;-68
2023/02/18 03:50:16;;;;;;;0.57;0.20;;;15.30;70.30;;;;;;5039238;28;20037;-68
2023/02/18 03:52:42;;;;;;;0.13;0.13;;;15.30;70.30;;;;;;5031902;28;20021;-68
2023/02/18 03:55:08;;;;;;;0.45;0.20;;;15.30;70.30;;;;;;5032311;28;20040;-68
2023/02/18 03:57:34;;;;;;;0.20;0.20;;;15.20;70.30;;;;;;5032382;28;20096;-68
2023/02/18 03:59:59;;;;;;;0.20;0.10;;;15.30;70.30;;;;;;5030864;28;20025;-68
2023/02/18 04:02:25;;;;;;;0.10;0.10;;;15.20;70.30;;;;;;5032349;28;20025;-68
2023/02/18 04:04:51;;;;;;;0.20;0.20;;;15.20;70.20;;;;;;5032156;28;20026;-68
2023/02/18 04:07:16;;;;;;;0.30;0.30;;;15.20;70.30;;;;;;5031177;28;20392;-68
2023/02/18 04:09:42;;;;;;;0.22;0.20;;;15.20;70.30;;;;;;5032226;28;20040;-68
2023/02/18 04:12:08;;;;;;;0.55;0.20;;;15.20;70.30;;;;;;5032255;28;20096;-68
2023/02/18 04:14:33;;;;;;;0.30;0.20;;;15.20;70.30;;;;;;5032341;28;20029;-68
2023/02/18 04:17:00;;;;;;;0.57;0.28;;;15.20;70.30;;;;;;5031057;28;20047;-68
2023/02/18 04:19:25;;;;;;;0.20;0.15;;;15.20;70.30;;;;;;5030795;28;20104;-68
2023/02/18 04:21:51;;;;;;;0.10;0.10;;;15.20;70.30;;;;;;5030942;28;20545;-68
2023/02/18 04:24:17;;;;;;;0.20;0.20;;;15.20;70.30;;;;;;5032327;28;20026;-68
2023/02/18 04:26:42;;;;;;;0.20;0.20;;;15.20;70.30;;;;;;5031948;28;20377;-68
2023/02/18 04:29:08;;;;;;;0.15;0.15;;;15.20;70.30;;;;;;5030745;28;20053;-68
2023/02/18 04:31:33;;;;;;;0.20;0.20;;;15.20;70.30;;;;;;5031148;28;20033;-68
2023/02/18 04:33:59;;;;;;;0.17;0.17;;;15.20;70.30;;;;;;5030566;28;20025;-68
2023/02/18 04:36:25;;;;;;;0.63;0.20;;;15.20;70.30;;;;;;5032092;28;20021;-68
2023/02/18 04:38:50;;;;;;;0.52;0.30;;;15.20;70.30;;;;;;5032011;28;20022;-68
2023/02/18 04:41:16;;;;;;;0.20;0.10;;;15.20;70.30;;;;;;5031982;28;20025;-68
2023/02/18 04:43:42;;;;;;;0.13;0.13;;;15.20;70.30;;;;;;5032102;28;20029;-68
2023/02/18 04:46:07;;;;;;;0.30;0.15;;;15.20;70.30;;;;;;5032429;28;20069;-68
2023/02/18 04:48:33;;;;;;;0.30;0.30;;;15.20;70.30;;;;;;5030565;28;20495;-68
2023/02/18 04:50:59;;;;;;;0.15;0.15;;;15.20;70.30;;;;;;5050511;28;20066;-68
2023/02/18 04:53:25;;;;;;;0.43;0.20;;;15.20;70.30;;;;;;5051824;28;20402;-68
2023/02/18 04:55:51;;;;;;;0.10;0.10;;;15.10;70.30;;;;;;5050616;28;20599;-68
2023/02/18 04:58:17;;;;;;;0.08;0.08;;;15.10;70.20;;;;;;5051948;28;20029;-68
2023/02/18 05:00:43;;;;;;;0.20;0.20;;;15.20;70.30;;;;;;5050526;28;20078;-68
2023/02/18 05:03:09;;;;;;;0.28;0.20;;;15.10;70.20;;;;;;5051495;28;20029;-68
2023/02/18 05:05:34;;;;;;;0.20;0.20;;;15.10;70.30;;;;;;5052275;28;20542;-68
2023/02/18 05:08:00;;;;;;;0.10;0.10;;;15.10;70.20;;;;;;5055284;28;20032;-68
2023/02/18 05:10:26;;;;;;;0.20;0.20;;;15.10;70.20;;;;;;5055201;28;20067;-68
2023/02/18 05:12:52;;;;;;;0.20;0.17;;;15.10;70.20;;;;;;5054221;28;20056;-68
2023/02/18 05:15:17;;;;;;;0.10;0.10;;;15.10;70.20;;;;;;5053850;28;20522;-68
2023/02/18 05:17:43;;;;;;;0.20;0.20;;;15.10;70.20;;;;;;5054924;28;20019;-68
2023/02/18 05:20:09;;;;;;;0.10;0.10;;;15.10;70.20;;;;;;5055081;28;20025;-68
2023/02/18 05:22:35;;;;;;;0.20;0.10;;;15.10;70.20;;;;;;5037261;28;20059;-68
2023/02/18 05:25:00;;;;;;;0.20;0.10;;;15.10;70.20;;;;;;5054996;28;20025;-68
2023/02/18 05:27:26;;;;;;;0.20;0.20;;;15.10;70.20;;;;;;5054960;28;20036;-68
2023/02/18 05:29:52;;;;;;;0.15;0.10;;;15.10;70.20;;;;;;5054615;28;20033;-68
2023/02/18 05:32:17;;;;;;;1.40;0.28;;;15.10;70.20;;;;;;5054734;28;20095;-68
2023/02/18 05:34:43;;;;;;;0.57;0.20;;;15.10;70.20;;;;;;5053624;28;20024;-68
2023/02/18 05:37:09;;;;;;;0.10;0.08;;;15.10;70.20;;;;;;5054720;28;20036;-68
2023/02/18 05:39:34;;;;;;;0.20;0.20;;;15.10;70.20;;;;;;5054708;28;20040;-68
2023/02/18 05:42:00;;;;;;;0.20;0.20;;;15.10;70.20;;;;;;5041429;28;20037;-68
2023/02/18 05:44:29;;;;;;;0.20;0.20;;;15.10;70.20;;;;;;5034715;28;20038;-68
2023/02/18 05:47:04;;;;;;;0.47;0.20;;;15.10;70.30;;;;;;5034437;28;20100;-68
2023/02/18 05:49:30;;;;;;;0.63;0.20;;;15.10;70.20;;;;;;5039788;28;20021;-68
2023/02/18 05:51:56;;;;;;;0.35;0.20;;;15.00;70.20;;;;;;5036654;28;20040;-68
2023/02/18 05:54:22;;;;;;;0.17;0.17;;;15.10;70.20;;;;;;5053327;28;20056;-68
2023/02/18 05:56:47;;;;;;;0.20;0.20;;;15.00;70.20;;;;;;5036697;28;20040;-68
2023/02/18 05:59:13;;;;;;;0.20;0.20;;;15.10;70.30;;;;;;5053091;28;20036;-68
2023/02/18 06:01:39;;;;;;;0.25;0.17;;;15.00;70.20;;;;;;5054114;28;20029;-68
2023/02/18 06:04:05;;;;;;;0.17;0.17;;;15.10;70.20;;;;;;5054277;28;20124;-68
2023/02/18 06:06:30;;;;;;;0.10;0.10;;;15.00;70.20;;;;;;5054273;28;20108;-68
2023/02/18 06:08:56;;;;;;;0.10;0.10;;;15.00;70.30;;;;;;5053060;28;20047;-68
2023/02/18 06:11:22;;;;;;;0.15;0.15;;;15.00;70.30;;;;;;5053930;28;20057;-68
2023/02/18 06:13:47;;;;;;;0.57;0.20;;;15.00;70.30;;;;;;5054070;28;20503;-68
2023/02/18 06:16:13;;;;;;;0.20;0.20;;;15.00;70.30;;;;;;5052198;28;20387;-68
2023/02/18 06:18:38;;;;;;;0.32;0.20;;;15.00;70.20;;;;;;5054068;28;20017;-68
2023/02/18 06:21:04;;;;;;;0.20;0.10;;;15.00;70.20;;;;;;5053790;28;20446;-68
2023/02/18 06:23:30;;;;;;;0.20;0.20;;;15.00;70.20;;;;;;5053931;28;20445;-67
2023/02/18 06:25:55;;;;;;;0.22;0.10;;;15.00;70.20;;;;;;5053665;28;20056;-68
2023/02/18 06:28:21;;;;;;;0.38;0.38;;;15.00;70.20;;;;;;5053800;28;20040;-68
2023/02/18 06:30:47;;;;;;;0.50;0.20;;;15.00;70.20;;;;;;5053503;28;20036;-68
2023/02/18 06:33:12;;;;;;;0.60;0.20;;;15.00;70.20;;;;;;5053585;28;20025;-68
2023/02/18 06:35:38;;;;;;;0.10;0.10;;;15.00;70.20;;;;;;5052514;28;20032;-68
2023/02/18 06:38:04;;;;;;;0.20;0.20;;;15.00;70.20;;;;;;5052386;28;20530;-68
2023/02/18 06:40:29;;;;;;;0.40;0.40;;;15.00;71.20;;;;;;5053565;28;20404;-68
2023/02/18 06:42:55;;;;;;;0.40;0.17;;;15.00;70.20;;;;;;5034003;28;20036;-67
2023/02/18 06:45:21;;;;;;;1.25;0.20;;;15.00;70.20;;;;;;5033322;28;20127;-68
2023/02/18 06:47:46;;;;;;;0.30;0.30;;;15.00;70.20;;;;;;5032295;28;20030;-68
2023/02/18 06:50:12;;;;;;;0.73;0.30;;;14.90;70.20;;;;;;5044353;28;20029;-67
2023/02/18 06:52:38;;;;;;;0.20;0.20;;;14.90;70.20;;;;;;5053283;28;20021;-68
2023/02/18 06:55:04;;;;;;;0.13;0.10;;;15.00;70.20;;;;;;5035483;28;20123;-68
2023/02/18 06:57:30;;;;;;;0.10;0.10;;;14.90;70.20;;;;;;5053360;28;20468;-68
2023/02/18 06:59:56;;;;;;;0.75;0.20;;;15.00;70.20;;;;;;5052737;28;20035;-68
2023/02/18 07:02:21;;;;;;;0.20;0.20;;;14.90;70.10;;;;;;5053220;28;20044;-68
2023/02/18 07:04:47;;;;;;;0.10;0.10;;;14.90;70.10;;;;;;5053203;28;20031;-68
2023/02/18 07:07:12;;;;;;;0.20;0.20;;;14.90;70.20;;;;;;5053244;28;20064;-68
2023/02/18 07:09:38;;;;;;;1.58;0.30;;;15.00;70.20;;;;;;5052867;28;20483;-68
2023/02/18 07:12:04;;;;;;;0.32;0.20;;;15.00;70.20;;;;;;5051687;28;20063;-68
2023/02/18 07:14:30;;;;;;;0.30;0.10;;;14.90;70.10;;;;;;5052853;28;20549;-68
2023/02/18 07:16:55;;;;;;;0.32;0.20;;;14.90;70.20;;;;;;5052861;28;20021;-68
2023/02/18 07:19:21;;;;;;;0.63;0.20;;;14.90;70.20;;;;;;5052887;28;20028;-68
2023/02/18 07:21:46;;;;;;;0.30;0.28;;;14.90;70.20;;;;;;5052846;28;20031;-68
2023/02/18 07:24:12;;;;;;;0.52;0.30;;;14.90;70.20;;;;;;5052648;28;20057;-68
2023/02/18 07:26:38;;;;;;;1.65;0.20;;;14.90;70.20;;;;;;5051530;28;20052;-68
2023/02/18 07:29:03;;;;;;;0.30;0.20;;;14.90;70.20;;;;;;5050392;28;20049;-68
2023/02/18 07:31:29;;;;;;;1.23;0.22;;;14.90;70.10;;;;;;5051339;28;20032;-68
2023/02/18 07:33:54;;;;;;;0.30;0.20;;;14.90;70.10;;;;;;5052609;28;20021;-68
2023/02/18 07:36:20;;;;;;;0.28;0.22;;;14.90;70.10;;;;;;5052719;28;20028;-68
2023/02/18 07:38:46;;;;;;;0.10;0.10;;;14.90;70.20;;;;;;5052719;28;20028;-68
2023/02/18 07:41:17;;;;;;;0.40;0.20;;;14.90;70.20;;;;;;5047120;28;20029;-68
2023/02/18 07:43:43;;;;;;;0.80;0.20;;;14.90;70.20;;;;;;5031429;28;20025;-68
2023/02/18 07:46:09;;;;;;;0.38;0.20;;;14.90;70.20;;;;;;5031317;28;20029;-68
2023/02/18 07:48:35;;;;;;;0.22;0.20;;;14.80;70.20;;;;;;5032378;28;20036;-68
2023/02/18 07:51:03;;;;;;;0.77;0.20;;;14.90;70.20;;;;;;5050090;28;20021;-68
2023/02/18 07:53:29;;;;;;;1.13;0.40;;;14.90;70.20;;;;;;5052616;28;20408;-68
2023/02/18 07:55:59;;;;;;;1.00;0.20;;;14.90;70.20;;;;;;5052291;28;20029;-68
2023/02/18 07:58:26;;;;;;;0.90;0.30;;;14.90;70.20;;;;;;5052396;28;20029;-68
2023/02/18 08:00:53;;;;;;;0.38;0.30;;;14.80;71.20;;;;;;5051121;28;20022;-68
2023/02/18 08:03:22;;;;;;;0.60;0.30;;;14.90;70.20;;;;;;5051133;28;20076;-67
2023/02/18 08:05:48;;;;;;;0.75;0.22;;;14.90;70.20;;;;;;5051195;28;20063;-68
2023/02/18 08:08:15;;;;;;;0.30;0.10;;;14.90;70.20;;;;;;5034456;28;20029;-68
2023/02/18 08:10:41;;;;;;;0.20;0.20;;;14.90;70.20;;;;;;5034301;28;20056;-68
2023/02/18 08:13:06;;;;;;;0.28;0.20;;;14.90;70.20;;;;;;5051003;28;20108;-68
2023/02/18 08:15:32;;;;;;;0.47;0.28;;;14.90;70.20;;;;;;5050898;28;20104;-68
2023/02/18 08:17:58;;;;;;;0.35;0.30;;;14.80;70.20;;;;;;5052137;28;20476;-68
2023/02/18 08:20:24;;;;;;;0.32;0.20;;;14.80;70.20;;;;;;5050914;28;20357;-67
2023/02/18 08:22:49;;;;;;;0.17;0.17;;;14.80;70.20;;;;;;5052221;28;20036;-68
2023/02/18 08:25:15;;;;;;;0.25;0.13;;;14.80;70.20;;;;;;5051893;28;20025;-68
2023/02/18 08:27:41;;;;;;;0.20;0.20;;;14.80;70.20;;;;;;5051877;28;20029;-68
2023/02/18 08:30:07;;;;;;;0.30;0.20;;;14.80;70.20;;;;;;5051907;28;20032;-68
2023/02/18 08:32:32;;;;;;;0.50;0.20;;;14.80;70.20;;;;;;5052201;28;20021;-68
2023/02/18 08:34:58;;;;;;;0.28;0.20;;;14.80;70.20;;;;;;5052099;28;20403;-68
2023/02/18 08:37:24;;;;;;;1.00;0.20;;;14.80;70.20;;;;;;5050836;28;20108;-68
2023/02/18 08:39:50;;;;;;;1.15;0.20;;;14.80;70.20;;;;;;5053760;28;20028;-68
2023/02/18 08:42:15;;;;;;;1.38;0.20;;;14.80;70.20;;;;;;5040408;28;20091;-68
2023/02/18 08:44:41;;;;;;;0.35;0.20;;;14.80;70.20;;;;;;5035727;28;20025;-68
2023/02/18 08:47:07;;;;;;;0.17;0.10;;;14.80;70.20;;;;;;5035621;28;20040;-68
2023/02/18 08:49:32;;;;;;;0.10;0.10;;;14.80;70.20;;;;;;5042303;28;20017;-68
2023/02/18 08:51:58;;;;;;;0.35;0.30;;;14.70;70.20;;;;;;5055687;28;20449;-68
2023/02/18 08:54:23;;;;;;;0.40;0.20;;;14.80;70.20;;;;;;5054187;28;20025;-67
2023/02/18 08:56:52;;;;;;;1.92;0.30;;;14.80;70.20;;;;;;5055617;28;20021;-68
2023/02/18 08:59:18;;;;;;;0.35;0.28;;;14.80;70.20;;;;;;5054284;28;20017;-67
2023/02/18 09:01:43;;;;;;;0.30;0.20;;;14.80;70.20;;;;;;5055457;28;20025;-68
2023/02/18 09:04:09;;;;;;;0.45;0.20;;;14.70;70.20;;;;;;5055236;28;20029;-68
2023/02/18 09:06:38;;;;;;;0.20;0.20;;;14.80;70.20;;;;;;5055401;28;20033;-68
2023/02/18 09:09:03;;;;;;;0.40;0.30;;;14.80;70.20;;;;;;5037461;28;20029;-67
2023/02/18 09:11:29;;;;;;;0.20;0.10;;;14.70;70.10;;;;;;5055263;28;20037;-68
2023/02/18 09:13:55;;;;;;;0.32;0.20;;;14.70;70.10;;;;;;5055293;28;20048;-68
2023/02/18 09:16:20;;;;;;;0.47;0.20;;;14.70;70.10;;;;;;5055144;28;20021;-68
2023/02/18 09:18:46;;;;;;;0.17;0.17;;;14.70;70.20;;;;;;5055193;28;20090;-68
2023/02/18 09:21:13;;;;;;;0.28;0.13;;;14.70;70.10;;;;;;5053787;28;20025;-68
2023/02/18 09:23:38;;;;;;;0.43;0.13;;;14.70;70.10;;;;;;5054823;28;20067;-68
2023/02/18 09:26:05;;;;;;;0.98;0.30;;;14.70;70.10;;;;;;5054928;28;20461;-68
2023/02/18 09:28:31;;;;;;;0.20;0.20;;;14.70;70.10;;;;;;5054708;28;20052;-68
2023/02/18 09:30:59;;;;;;;0.15;0.10;;;14.70;70.20;;;;;;5053767;28;20403;-68
2023/02/18 09:33:24;;;;;;;0.80;0.20;;;14.70;70.20;;;;;;5054837;28;20043;-68
2023/02/18 09:35:50;;;;;;;0.15;0.15;;;14.70;70.20;;;;;;5054860;28;20446;-67
2023/02/18 09:38:16;;;;;;;1.25;0.30;;;14.70;70.10;;;;;;5054648;28;20025;-68
2023/02/18 09:40:47;;;;;;;0.20;0.10;;;14.70;70.20;;;;;;5052130;28;20029;-68
2023/02/18 09:43:42;;;;;;;0.40;0.20;;;14.70;70.30;;;;;;5033633;28;20026;-68
2023/02/18 09:46:17;;;;;;;0.22;0.15;;;14.70;70.20;;;;;;5034938;28;20049;-68
2023/02/18 09:48:43;;;;;;;0.55;0.30;;;14.70;70.30;;;;;;5033351;28;20025;-68
2023/02/18 09:51:10;;;;;;;0.32;0.20;;;14.70;70.20;;;;;;5032619;28;20145;-68
2023/02/18 09:53:36;;;;;;;0.65;0.30;;;14.70;70.20;;;;;;5033343;28;20014;-68
2023/02/18 09:56:01;;;;;;;0.20;0.20;;;14.70;70.20;;;;;;5033369;28;20032;-68
2023/02/18 09:58:30;;;;;;;0.20;0.17;;;14.70;70.20;;;;;;5033164;28;20025;-68
2023/02/18 10:01:05;;;;;;;0.50;0.20;;;14.70;70.20;;;;;;5016886;28;20025;-68
2023/02/18 10:03:31;;;;;;;0.30;0.20;;;14.70;70.20;;;;;;5033319;28;20022;-68
2023/02/18 10:06:08;;;;;;;0.20;0.10;;;14.70;70.10;;;;;;5034302;28;20028;-68
2023/02/18 10:08:37;;;;;;;0.32;0.22;;;14.70;70.20;;;;;;5017858;28;20095;-68
2023/02/18 10:11:03;;;;;;;0.30;0.30;;;14.70;70.20;;;;;;5032956;28;20026;-68
2023/02/18 10:13:31;;;;;;;0.17;0.17;;;14.70;70.20;;;;;;5033134;28;20539;-68
2023/02/18 10:15:57;;;;;;;0.20;0.20;;;14.60;70.10;;;;;;5033026;28;20387;-68
2023/02/18 10:18:31;;;;;;;0.38;0.38;;;14.60;70.20;;;;;;5032904;28;20022;-68
2023/02/18 10:21:18;;;;;;;0.10;0.10;;;14.60;70.10;;;;;;5032780;28;20025;-67
2023/02/18 10:24:03;;;;;;;0.25;0.20;;;14.60;70.10;;;;;;5032865;28;20021;-68
2023/02/18 10:26:30;;;;;;;0.32;0.13;;;14.60;70.10;;;;;;5016719;28;20484;-68
2023/02/18 10:28:56;;;;;;;0.38;0.20;;;14.60;70.20;;;;;;5016201;28;20041;-68
2023/02/18 10:31:28;;;;;;;0.30;0.20;;;14.60;70.20;;;;;;5032531;28;20031;-68
2023/02/18 10:34:12;;;;;;;0.55;0.28;;;14.60;70.20;;;;;;5016758;28;20025;-68
2023/02/18 10:36:41;;;;;;;0.40;0.20;;;14.60;70.20;;;;;;5033515;28;20025;-68
2023/02/18 10:39:17;;;;;;;0.20;0.20;;;14.60;70.20;;;;;;5033587;28;20032;-68
2023/02/18 10:42:04;;;;;;;0.30;0.20;;;14.60;70.20;;;;;;5033737;28;20030;-68
2023/02/18 10:44:52;;;;;;;1.25;0.45;;;14.60;70.20;;;;;;5032484;28;20030;-68
2023/02/18 10:47:27;;;;;;;0.38;0.20;;;14.60;70.10;;;;;;5032325;28;20029;-68
2023/02/18 10:49:59;;;;;;;0.32;0.32;;;14.60;70.20;;;;;;5041277;28;20442;-68
2023/02/18 10:52:28;;;;;;;0.30;0.25;;;14.60;70.10;;;;;;5053314;28;20021;-68
2023/02/18 10:55:05;;;;;;;0.20;0.20;;;14.60;70.10;;;;;;5035941;28;20021;-68
2023/02/18 10:57:31;;;;;;;0.30;0.20;;;14.60;70.20;;;;;;5052201;28;20017;-68
2023/02/18 11:00:01;;;;;;;0.30;0.10;;;14.60;70.20;;;;;;5035451;28;20079;-68
2023/02/18 11:02:31;;;;;;;0.20;0.20;;;14.60;70.20;;;;;;5053018;28;20031;-68
2023/02/18 11:04:57;;;;;;;0.25;0.10;;;14.60;70.20;;;;;;5035610;28;20495;-68
2023/02/18 11:07:30;;;;;;;0.17;0.17;;;14.60;70.20;;;;;;5051828;28;20052;-68
2023/02/18 11:10:00;;;;;;;0.60;0.38;;;14.60;70.20;;;;;;5035537;28;20027;-68
2023/02/18 11:12:32;;;;;;;0.30;0.30;;;14.60;70.10;;;;;;5035641;28;20091;-68
2023/02/18 11:15:13;;;;;;;0.57;0.30;;;14.60;70.20;;;;;;5036012;28;20372;-68
2023/02/18 11:17:39;;;;;;;0.65;0.30;;;14.60;70.20;;;;;;5052968;28;20450;-68
2023/02/18 11:20:31;;;;;;;0.22;0.22;;;14.50;70.20;;;;;;5052723;28;20506;-68
2023/02/18 11:23:06;;;;;;;0.73;0.35;;;14.60;70.20;;;;;;5052985;28;20533;-68
2023/02/18 11:25:36;;;;;;;0.20;0.20;;;14.60;70.20;;;;;;5051667;28;20060;-68
2023/02/18 11:28:11;;;;;;;0.52;0.20;;;14.60;70.20;;;;;;5034823;28;20506;-68
2023/02/18 11:30:38;;;;;;;0.28;0.20;;;14.60;70.20;;;;;;5051551;28;20104;-68
2023/02/18 11:33:32;;;;;;;0.63;0.30;;;14.60;70.20;;;;;;5034958;28;20511;-68
2023/02/18 11:36:22;;;;;;;0.20;0.10;;;14.60;70.20;;;;;;5052579;28;20048;-68
2023/02/18 11:38:55;;;;;;;0.10;0.10;;;14.50;70.20;;;;;;5051386;28;20032;-68
2023/02/18 11:41:29;;;;;;;0.35;0.10;;;14.50;70.20;;;;;;5011963;28;20439;-68
2023/02/18 11:43:55;;;;;;;0.20;0.20;;;14.50;70.20;;;;;;5031471;28;20029;-68
2023/02/18 11:46:22;;;;;;;0.13;0.13;;;14.50;70.20;;;;;;5031436;28;20056;-68
2023/02/18 11:48:48;;;;;;;0.10;0.10;;;14.50;70.20;;;;;;5033232;28;20495;-68
2023/02/18 11:51:31;;;;;;;0.38;0.20;;;14.50;70.20;;;;;;5034596;28;20120;-68
2023/02/18 11:54:01;;;;;;;0.28;0.28;;;14.50;70.10;;;;;;5051076;28;20032;-68
2023/02/18 11:56:39;;;;;;;0.10;0.10;;;14.50;70.20;;;;;;5051218;28;20033;-68
2023/02/18 11:59:05;;;;;;;0.13;0.10;;;14.50;70.20;;;;;;5051330;28;20067;-68
2023/02/18 12:01:56;;;;;;;1.27;0.20;;;14.50;70.20;;;;;;5051137;28;20075;-68
2023/02/18 12:04:32;;;;;;;0.45;0.20;;;14.50;70.20;;;;;;5035569;28;20021;-68
2023/02/18 12:07:04;;;;;;;0.10;0.10;;;14.50;70.20;;;;;;5052559;28;20032;-68
2023/02/18 12:09:36;;;;;;;0.65;0.38;;;14.50;70.20;;;;;;5052266;28;20025;-68
2023/02/18 12:12:07;;;;;;;0.20;0.20;;;14.50;70.20;;;;;;5034627;28;20021;-68
2023/02/18 12:14:32;;;;;;;0.25;0.22;;;14.50;70.20;;;;;;5036467;28;20252;-68
2023/02/18 12:17:17;;;;;;;0.10;0.10;;;14.50;70.20;;;;;;5038357;28;20498;-68
2023/02/18 12:19:49;;;;;;;0.22;0.20;;;14.50;70.20;;;;;;5055008;28;20063;-68
2023/02/18 12:22:22;;;;;;;0.20;0.20;;;14.50;70.20;;;;;;5055978;28;20025;-68
2023/02/18 12:24:51;;;;;;;0.10;0.08;;;14.50;70.20;;;;;;5055098;28;20071;-68
2023/02/18 12:27:34;;;;;;;0.20;0.20;;;14.50;70.20;;;;;;5056116;28;20021;-68
2023/02/18 12:30:36;;;;;;;0.40;0.20;;;14.50;70.20;;;;;;5038916;28;20041;-68
2023/02/18 12:33:40;;;;;;;0.30;0.13;;;14.50;70.20;;;;;;5055962;28;20507;-68
2023/02/18 12:36:21;;;;;;;;;;;14.50;70.30;;;;;;5054249;28;20647;-68
2023/02/18 12:39:40;;;;;;;0.10;0.10;;;14.50;70.30;;;;;;5053648;28;19908;-68
2023/02/18 12:42:28;;;;;;;0.17;0.17;;;14.50;70.20;;;;;;4974737;28;20031;-68
2023/02/18 12:45:27;;;;;;;0.50;0.20;;;14.50;70.20;;;;;;4974976;28;20039;-68
2023/02/18 12:48:04;;;;;;;1.05;0.20;;;14.50;70.40;;;;;;4974594;28;20023;-68
2023/02/18 12:50:48;;;;;;;0.10;0.10;;;14.50;70.30;;;;;;4974669;28;20046;-68
2023/02/18 12:53:44;;;;;;;0.20;0.20;;;14.50;70.30;;;;;;4960428;28;20038;-68
2023/02/18 12:56:30;;;;;;;0.15;0.15;;;14.50;70.30;;;;;;4974839;28;20042;-68
2023/02/18 12:59:20;;;;;;;0.22;0.13;;;14.50;70.20;;;;;;4974732;28;20030;-68
2023/02/18 13:02:01;;;;;;;0.20;0.20;;;14.40;70.20;;;;;;4960592;28;20039;-68
2023/02/18 13:04:33;;;;;;;0.10;0.10;;;14.50;70.20;;;;;;4974502;28;20035;-68